< Typhoon 196004 1960 Season Typhoon 196006 >
Typhoon 196005 (OLIVE)
General InformationTrack Information on Google Maps || Disaster Info.ResourceGoogle EarthGE AnimationAtom FeedGeoJSON
Detalied Best Track (Time Zone = UTC)
Year Month Day Hour Lat. Long. Pressure (hPa) Wind (kt) Class Image Chart
1960 6 21 06 7.5 137.0 1004 0 2 -- Chart
1960 6 21 12 7.5 137.5 1006 0 2 -- Chart
1960 6 21 18 7.5 138.0 1004 0 2 -- Chart
1960 6 22 00 8.0 138.5 1006 0 2 -- Chart
1960 6 22 06 8.6 139.0 1004 0 2 -- Chart
1960 6 22 12 10.0 138.6 1006 0 2 -- Chart
1960 6 22 18 10.3 137.0 1006 0 2 -- Chart
1960 6 23 00 10.5 136.0 1006 0 2 -- Chart
1960 6 23 06 10.7 135.0 1004 0 2 -- Chart
1960 6 23 12 11.2 134.0 1006 0 2 -- Chart
1960 6 23 18 11.5 133.0 1006 0 2 -- Chart
1960 6 24 00 11.8 132.0 1006 0 2 -- Chart
1960 6 24 06 12.3 131.0 1000 0 9 -- Chart
1960 6 24 12 12.5 130.0 995 0 9 -- Chart
1960 6 24 18 13.0 129.0 970 0 9 -- Chart
1960 6 25 00 13.3 127.9 950 0 9 -- Chart
1960 6 25 06 13.2 126.4 950 0 9 -- Chart
1960 6 25 12 13.3 125.0 950 0 9 -- Chart
1960 6 25 18 13.7 124.0 950 0 9 -- Chart
1960 6 26 00 14.3 122.3 950 0 9 -- Chart
1960 6 26 06 14.4 121.6 960 0 9 -- Chart
1960 6 26 12 14.6 121.3 960 0 9 -- Chart
1960 6 26 18 15.0 121.0 970 0 9 -- Chart
1960 6 27 00 15.4 120.5 980 0 9 -- Chart
1960 6 27 06 15.6 119.6 990 0 9 -- Chart
1960 6 27 12 16.0 119.0 995 0 9 -- Chart
1960 6 27 18 17.8 118.2 995 0 9 -- Chart
1960 6 28 00 18.6 117.4 990 0 9 -- Chart
1960 6 28 06 19.3 116.6 990 0 9 -- Chart
1960 6 28 12 19.6 116.1 985 0 9 -- Chart
1960 6 28 18 19.9 115.5 985 0 9 -- Chart
1960 6 29 00 20.1 114.5 980 0 9 -- Chart
1960 6 29 06 20.2 113.0 980 0 9 -- Chart
1960 6 29 12 20.6 111.8 980 0 9 -- Chart
1960 6 29 18 20.8 110.8 980 0 9 -- Chart
1960 6 30 00 21.5 109.5 990 0 9 -- Chart
1960 6 30 06 21.6 108.5 990 0 9 -- Chart
1960 6 30 12 21.0 106.5 994 0 9 -- Chart
1960 6 30 18 21.0 105.0 996 0 2 -- Chart
1960 7 1 00 21.0 104.0 996 0 2 -- Chart
1960 7 1 06 23.5 101.0 996 0 2 -- Chart
1960 7 1 12 24.1 100.1 996 0 2 -- Chart
Japan Meteorological Agency Best Track Data | Correction Date : 1989-06-01
< Typhoon 196004 1960 Season Typhoon 196006 >

Help